Terminal Aerodrome Forecast
Issued by NWS

Home | Current Version | Previous Version | Text Only | Print | Product List | Glossary Off
Versions: 1 2 3 4 5 6 7 8 9 10 11 12 13 14 15

000
FTUS43 KBIS 210524
TAFMOT
TAF
KMOT 210524Z 2106/2206 13007KT P6SM FEW140
     FM210900 15007KT P6SM VCTS BKN120CB
     FM211000 16008KT P6SM VCTS BKN110CB WS020/18035KT
     FM211200 16009KT P6SM BKN150
     FM211700 27019G28KT P6SM SCT200
     FM220200 28011KT P6SM SKC=

USA.gov is the U.S. government's official web portal to all federal, state and local government web resources and services.